Time;durP1;ratioP1;P1;durP2;ratioP2;P2;SDS_P1;SDS_P2;PMS_P1;PMS_P2;Temp;Humidity;BMP_temperature;BMP_pressure;BME280_temperature;BME280_humidity;BME280_pressure;Samples;Min_cycle;Max_cycle;Signal;HPM_P1;HPM_P2
2021/06/14 00:01:21;;;;;;;6.47;4.10;;;;;;;15.64;56.46;99628.69;3619775;39;20081;-65
2021/06/14 00:03:49;;;;;;;6.82;4.28;;;;;;;15.68;56.12;99629.97;3620006;39;20046;-64
2021/06/14 00:06:17;;;;;;;5.53;3.83;;;;;;;15.77;55.84;99625.22;3619846;39;20143;-64
2021/06/14 00:08:45;;;;;;;6.53;4.18;;;;;;;15.76;55.71;99623.59;3619541;39;20079;-64
2021/06/14 00:11:13;;;;;;;9.23;4.50;;;;;;;15.64;56.40;99622.53;3619616;39;20055;-65
2021/06/14 00:13:40;;;;;;;7.78;4.57;;;;;;;15.68;56.94;99613.97;3619439;39;20373;-65
2021/06/14 00:16:10;;;;;;;6.88;4.45;;;;;;;15.59;57.01;99620.47;3619594;39;20047;-65
2021/06/14 00:18:38;;;;;;;7.72;4.88;;;;;;;15.47;57.08;99614.13;3619226;39;20047;-65
2021/06/14 00:21:09;;;;;;;8.90;5.25;;;;;;;15.48;57.41;99619.25;3619538;39;20414;-65
2021/06/14 00:23:37;;;;;;;7.65;4.80;;;;;;;15.57;57.40;99627.88;3619687;39;20043;-64
2021/06/14 00:26:10;;;;;;;7.45;4.90;;;;;;;15.62;57.28;99625.41;3619604;39;20043;-65
2021/06/14 00:28:38;;;;;;;5.28;4.28;;;;;;;15.67;57.14;99617.63;3619344;39;20423;-65
2021/06/14 00:31:08;;;;;;;7.45;5.07;;;;;;;15.67;57.09;99620.28;3618659;39;20054;-64
2021/06/14 00:33:38;;;;;;;8.43;5.35;;;;;;;15.64;56.82;99606.56;3619901;39;20431;-65
2021/06/14 00:36:07;;;;;;;7.30;4.90;;;;;;;15.27;58.36;99614.94;3619370;39;20076;-65
2021/06/14 00:38:36;;;;;;;8.48;4.70;;;;;;;15.09;58.77;99615.50;3619170;39;20078;-65
2021/06/14 00:41:05;;;;;;;6.32;4.35;;;;;;;15.06;58.46;99617.75;3619659;39;20091;-64
2021/06/14 00:43:38;;;;;;;5.40;4.70;;;;;;;14.98;59.09;99618.78;3619911;39;20039;-64
2021/06/14 00:46:07;;;;;;;8.18;4.72;;;;;;;15.00;58.67;99624.72;3619235;39;20062;-64
2021/06/14 00:48:37;;;;;;;6.95;4.90;;;;;;;15.00;58.24;99622.06;3620403;39;20051;-64
2021/06/14 00:51:07;;;;;;;8.95;4.60;;;;;;;14.94;58.49;99614.88;3620865;39;20059;-64
2021/06/14 00:53:37;;;;;;;7.93;4.35;;;;;;;14.85;58.75;99621.38;3619221;39;20054;-64
2021/06/14 00:56:09;;;;;;;8.13;4.72;;;;;;;14.86;58.87;99618.53;3619392;39;20055;-64
2021/06/14 00:58:39;;;;;;;5.88;4.32;;;;;;;14.95;59.03;99608.53;3618641;39;20127;-64
2021/06/14 01:01:08;;;;;;;6.13;5.03;;;;;;;14.92;57.93;99600.13;3619650;39;20062;-65
2021/06/14 01:03:38;;;;;;;6.32;5.03;;;;;;;14.78;58.33;99602.75;3619274;39;20083;-65
2021/06/14 01:06:08;;;;;;;9.75;5.30;;;;;;;14.77;58.25;99611.72;3619066;39;20054;-64
2021/06/14 01:08:40;;;;;;;6.97;5.05;;;;;;;14.76;58.43;99607.44;3619068;39;20062;-65
2021/06/14 01:11:14;;;;;;;7.80;4.70;;;;;;;14.74;57.67;99608.69;3622803;39;20488;-65
2021/06/14 01:13:53;;;;;;;8.02;4.63;;;;;;;14.68;57.48;99607.63;3625115;39;20051;-65
2021/06/14 01:16:30;;;;;;;8.95;4.45;;;;;;;14.56;57.56;99601.22;3622751;39;20043;-64
2021/06/14 01:19:10;;;;;;;7.28;4.57;;;;;;;14.48;57.72;99604.03;3623502;39;20050;-64
2021/06/14 01:21:46;;;;;;;5.35;4.55;;;;;;;14.54;57.90;99611.25;3619282;39;20050;-66
2021/06/14 01:24:49;;;;;;;6.07;4.68;;;;;;;14.60;58.01;99613.94;3618984;39;20327;-65
2021/06/14 01:27:30;;;;;;;;;;;;;;;14.54;57.79;99613.94;3620199;39;20040;-65
2021/06/14 01:29:59;;;;;;;5.07;4.57;;;;;;;14.52;58.21;99606.13;3619999;39;20268;-64
2021/06/14 01:32:29;;;;;;;6.07;5.30;;;;;;;14.49;58.32;99595.91;3620571;39;20043;-65
2021/06/14 01:34:57;;;;;;;7.72;5.05;;;;;;;14.50;58.62;99596.72;3629573;39;20047;-65
2021/06/14 01:37:27;;;;;;;5.85;4.78;;;;;;;14.46;58.65;99603.41;3625848;39;20403;-64
2021/06/14 01:39:57;;;;;;;9.05;5.07;;;;;;;14.46;58.35;99600.75;3621163;39;20104;-65
2021/06/14 01:42:27;;;;;;;8.70;5.65;;;;;;;14.41;58.63;99590.72;3618453;39;20079;-64
2021/06/14 01:44:55;;;;;;;9.00;5.28;;;;;;;14.39;58.54;99590.06;3626511;39;20043;-65
2021/06/14 01:47:23;;;;;;;10.25;5.45;;;;;;;14.45;58.78;99591.13;3618598;39;20047;-65
2021/06/14 01:49:53;;;;;;;6.78;4.60;;;;;;;14.42;58.95;99594.19;3619372;39;20064;-65
2021/06/14 01:52:24;;;;;;;7.65;5.13;;;;;;;14.33;58.98;99588.22;3626651;39;20047;-64
2021/06/14 01:54:55;;;;;;;6.78;4.68;;;;;;;14.28;59.28;99586.13;3619400;39;20055;-65
2021/06/14 01:57:35;;;;;;;7.22;5.20;;;;;;;14.22;59.44;99588.78;3626566;39;20058;-65
2021/06/14 02:00:12;;;;;;;8.95;5.53;;;;;;;14.18;59.50;99583.03;3617977;39;20433;-64
2021/06/14 02:02:57;;;;;;;8.30;5.70;;;;;;;14.13;59.65;99580.97;3617922;39;20053;-64
2021/06/14 02:05:47;;;;;;;5.90;5.32;;;;;;;13.92;60.34;99575.72;3617980;39;20312;-65
2021/06/14 02:08:17;;;;;;;8.75;5.35;;;;;;;13.87;60.86;99573.63;3617423;39;20086;-65
2021/06/14 02:10:47;;;;;;;7.00;5.85;;;;;;;13.82;60.82;99572.59;3617743;39;20059;-65
2021/06/14 02:13:19;;;;;;;6.55;5.10;;;;;;;13.83;61.14;99569.72;3618187;39;20112;-64
2021/06/14 02:15:47;;;;;;;8.25;5.82;;;;;;;13.87;61.04;99570.16;3622937;39;20039;-65
2021/06/14 02:18:23;;;;;;;7.53;5.20;;;;;;;13.87;60.99;99567.50;3624472;39;20432;-64
2021/06/14 02:20:55;;;;;;;6.45;4.78;;;;;;;13.91;60.48;99567.94;3630355;39;20052;-65
2021/06/14 02:23:24;;;;;;;7.03;5.13;;;;;;;13.91;60.92;99571.41;3619551;39;20055;-65
2021/06/14 02:25:51;;;;;;;12.00;7.50;;;;;;;13.98;60.83;99563.50;3619375;39;20043;-64
2021/06/14 02:28:21;;;;;;;8.68;5.68;;;;;;;14.08;60.11;99562.13;3618446;39;20054;-65
2021/06/14 02:30:49;;;;;;;10.50;5.57;;;;;;;14.10;59.79;99562.75;3626343;39;20304;-65
2021/06/14 02:33:17;;;;;;;6.00;5.40;;;;;;;14.03;59.72;99555.75;3618883;39;20043;-64
2021/06/14 02:36:06;;;;;;;7.38;4.93;;;;;;;13.97;60.00;99557.34;3626550;39;20047;-65
2021/06/14 02:38:35;;;;;;;9.82;5.40;;;;;;;13.95;59.94;99555.91;3627328;39;20047;-64
2021/06/14 02:41:04;;;;;;;6.70;4.80;;;;;;;13.92;60.10;99548.31;3620357;39;20104;-64
2021/06/14 02:43:34;;;;;;;5.55;4.97;;;;;;;13.92;60.14;99556.28;3619078;39;20062;-65
2021/06/14 02:46:04;;;;;;;6.85;5.22;;;;;;;13.87;59.83;99559.53;3676572;22;20294;-59
2021/06/14 02:48:35;;;;;;;8.60;5.50;;;;;;;13.78;60.07;99548.25;3609813;39;20075;-60
2021/06/14 02:51:06;;;;;;;8.00;5.75;;;;;;;13.75;60.26;99563.75;3609937;39;20047;-59
2021/06/14 02:53:37;;;;;;;6.22;4.90;;;;;;;13.71;60.82;99555.34;3609901;39;20400;-59
2021/06/14 02:56:10;;;;;;;9.80;5.30;;;;;;;13.79;60.37;99554.38;3600525;39;20120;-60
2021/06/14 02:58:43;;;;;;;5.50;4.88;;;;;;;13.77;60.15;99553.75;3600436;39;20047;-60
2021/06/14 03:01:13;;;;;;;6.63;4.72;;;;;;;13.75;60.29;99553.94;3609854;39;20060;-60
2021/06/14 03:03:43;;;;;;;7.03;5.07;;;;;;;13.75;60.30;99542.50;3600450;39;20140;-60
2021/06/14 03:06:16;;;;;;;;;;;;;;;13.54;60.64;99551.34;3610139;39;20039;-59
2021/06/14 03:08:49;;;;;;;6.57;5.03;;;;;;;13.42;60.86;99547.56;3600186;39;19931;-59
2021/06/14 03:11:17;;;;;;;7.65;4.70;;;;;;;13.36;61.30;99542.03;3609860;39;20062;-59
2021/06/14 03:13:47;;;;;;;7.15;5.53;;;;;;;13.37;61.78;99548.97;3600331;39;20074;-62
2021/06/14 03:16:20;;;;;;;8.27;5.53;;;;;;;13.36;61.28;99549.19;3610320;39;20036;-59
2021/06/14 03:18:49;;;;;;;8.18;5.50;;;;;;;13.41;61.29;99546.75;3609257;39;20046;-59
2021/06/14 03:21:19;;;;;;;6.63;5.40;;;;;;;13.36;61.99;99551.84;3600779;39;20059;-59
2021/06/14 03:23:49;;;;;;;8.48;5.20;;;;;;;13.31;61.73;99547.09;3609637;39;20112;-59
2021/06/14 03:26:19;;;;;;;7.00;5.45;;;;;;;13.30;61.85;99544.63;3600391;39;20035;-59
2021/06/14 03:28:49;;;;;;;7.80;5.05;;;;;;;13.21;62.32;99543.91;3610027;39;20288;-59
2021/06/14 03:31:17;;;;;;;7.95;5.53;;;;;;;13.21;61.98;99541.25;3609689;39;20047;-59
2021/06/14 03:33:48;;;;;;;5.60;4.88;;;;;;;13.18;62.36;99538.16;3600649;39;20087;-59
2021/06/14 03:36:19;;;;;;;6.57;5.57;;;;;;;13.16;61.79;99533.03;3609949;39;20068;-59
2021/06/14 03:38:47;;;;;;;7.68;5.80;;;;;;;13.01;62.67;99533.09;3600048;39;20047;-59
2021/06/14 03:41:15;;;;;;;6.63;5.05;;;;;;;12.93;62.63;99527.13;3609800;39;20039;-59
2021/06/14 03:43:43;;;;;;;7.38;6.50;;;;;;;12.99;63.12;99534.34;3609741;39;20058;-59
2021/06/14 03:46:13;;;;;;;9.65;6.80;;;;;;;13.10;62.49;99536.44;3609723;39;20036;-59
2021/06/14 03:48:41;;;;;;;8.10;5.97;;;;;;;13.05;62.30;99531.72;3608931;39;20058;-61
2021/06/14 03:51:10;;;;;;;10.50;6.45;;;;;;;13.11;62.62;99540.78;3610146;39;20277;-59
2021/06/14 03:53:39;;;;;;;7.03;5.00;;;;;;;13.07;62.63;99534.19;3609381;39;20028;-59
2021/06/14 03:56:09;;;;;;;7.00;5.32;;;;;;;13.14;62.58;99540.38;3609374;39;20043;-59
2021/06/14 03:58:38;;;;;;;7.93;5.05;;;;;;;13.14;62.55;99541.22;3609182;39;20036;-59
2021/06/14 04:01:06;;;;;;;7.00;5.40;;;;;;;13.19;62.56;99530.00;3609181;39;20085;-59
2021/06/14 04:03:35;;;;;;;8.60;5.70;;;;;;;13.19;62.05;99530.00;3609943;39;20028;-59
2021/06/14 04:06:03;;;;;;;6.22;5.47;;;;;;;13.08;62.48;99534.00;3609242;39;20052;-59
2021/06/14 04:08:37;;;;;;;7.40;5.95;;;;;;;12.97;62.67;99533.69;3599587;39;20131;-59
2021/06/14 04:11:05;;;;;;;6.47;5.32;;;;;;;12.94;62.74;99539.38;3609188;39;20047;-59
2021/06/14 04:13:33;;;;;;;7.32;5.70;;;;;;;13.02;62.78;99541.88;3600344;39;20042;-59
2021/06/14 04:16:01;;;;;;;7.50;5.47;;;;;;;13.10;62.79;99550.56;3609715;39;20028;-59
2021/06/14 04:18:28;;;;;;;6.95;5.70;;;;;;;13.25;62.58;99544.38;3609120;39;20058;-59
2021/06/14 04:20:57;;;;;;;7.07;5.45;;;;;;;13.42;62.56;99553.69;3609281;39;20050;-59
2021/06/14 04:23:25;;;;;;;8.85;5.47;;;;;;;13.58;62.46;99540.13;3610262;39;20121;-59
2021/06/14 04:25:53;;;;;;;14.15;5.38;;;;;;;13.61;62.14;99537.09;3609267;39;20058;-59
2021/06/14 04:28:21;;;;;;;10.10;7.38;;;;;;;13.73;61.89;99542.69;3608840;39;20393;-59
2021/06/14 04:30:48;;;;;;;9.45;5.50;;;;;;;13.64;61.93;99538.56;3609326;39;20392;-59
2021/06/14 04:33:16;;;;;;;8.32;6.68;;;;;;;13.75;61.64;99545.97;3609434;39;20028;-59
2021/06/14 04:35:44;;;;;;;8.75;5.25;;;;;;;13.87;61.63;99546.25;3609204;39;20079;-59
2021/06/14 04:38:13;;;;;;;12.88;6.30;;;;;;;14.01;61.38;99541.84;3609385;39;20054;-60
2021/06/14 04:40:41;;;;;;;15.70;7.25;;;;;;;14.19;60.89;99535.97;3610201;39;20432;-59
2021/06/14 04:43:09;;;;;;;15.95;8.43;;;;;;;14.37;60.56;99542.41;3600979;39;20053;-65
2021/06/14 04:45:36;;;;;;;18.95;10.80;;;;;;;14.22;60.50;99533.75;3610356;39;20081;-59
2021/06/14 04:48:05;;;;;;;12.82;8.00;;;;;;;14.09;60.75;99531.03;3610665;39;20096;-60
2021/06/14 04:50:33;;;;;;;10.43;7.32;;;;;;;14.03;61.08;99532.63;3611100;39;20047;-59
2021/06/14 04:53:00;;;;;;;12.82;6.88;;;;;;;14.16;61.08;99534.53;3611843;39;20103;-59
2021/06/14 04:55:30;;;;;;;12.90;7.25;;;;;;;14.34;59.94;99539.31;3602452;39;20051;-60
2021/06/14 04:57:57;;;;;;;10.35;6.82;;;;;;;14.35;59.90;99528.47;3611290;39;20048;-59
2021/06/14 05:00:27;;;;;;;10.27;6.25;;;;;;;14.35;60.08;99519.69;3613746;39;20047;-60
2021/06/14 05:02:55;;;;;;;10.50;6.35;;;;;;;14.45;59.59;99520.13;3609169;39;20080;-59
2021/06/14 05:05:23;;;;;;;10.60;6.03;;;;;;;14.61;59.23;99524.28;3599447;39;20050;-59
2021/06/14 05:07:50;;;;;;;8.50;6.40;;;;;;;14.79;58.41;99515.75;3608830;39;20087;-59
2021/06/14 05:10:18;;;;;;;8.57;5.20;;;;;;;14.87;57.93;99520.88;3608770;39;20372;-60
2021/06/14 05:12:47;;;;;;;7.28;6.38;;;;;;;15.04;57.30;99529.28;3599519;39;20066;-60
2021/06/14 05:15:15;;;;;;;11.70;6.40;;;;;;;15.09;56.98;99522.31;3609106;39;20044;-59
2021/06/14 05:17:43;;;;;;;10.02;6.70;;;;;;;15.13;57.01;99520.06;3608343;39;20084;-60
2021/06/14 05:20:14;;;;;;;9.00;6.22;;;;;;;15.18;56.81;99519.44;3599508;39;20055;-59
2021/06/14 05:22:42;;;;;;;7.80;5.50;;;;;;;15.14;56.51;99519.03;3608961;39;20362;-59
2021/06/14 05:25:11;;;;;;;8.57;5.97;;;;;;;15.25;55.98;99525.59;3608853;39;20043;-59
2021/06/14 05:27:39;;;;;;;9.05;5.80;;;;;;;15.17;56.55;99515.97;3608278;39;20061;-59
2021/06/14 05:30:09;;;;;;;8.32;5.95;;;;;;;15.28;56.59;99522.53;3608704;39;20420;-59
2021/06/14 05:32:38;;;;;;;10.52;7.13;;;;;;;15.47;55.99;99515.53;3608870;39;20051;-60
2021/06/14 05:35:07;;;;;;;7.35;5.15;;;;;;;15.50;56.21;99510.59;3609017;39;20406;-60
2021/06/14 05:37:35;;;;;;;8.48;6.75;;;;;;;15.69;55.99;99522.31;3598890;39;20075;-60
2021/06/14 05:40:04;;;;;;;9.05;6.15;;;;;;;15.89;55.62;99508.13;3608981;39;20047;-60
2021/06/14 05:42:32;;;;;;;7.22;5.75;;;;;;;15.98;55.20;99506.84;3608512;39;20428;-60
2021/06/14 05:45:00;;;;;;;7.38;6.28;;;;;;;16.02;54.48;99502.72;3608552;39;20052;-60
2021/06/14 05:47:29;;;;;;;10.20;6.32;;;;;;;15.98;54.91;99497.00;3608608;39;20079;-60
2021/06/14 05:49:57;;;;;;;10.57;6.10;;;;;;;16.16;54.66;99495.50;3608605;39;20047;-59
2021/06/14 05:52:25;;;;;;;10.00;6.22;;;;;;;16.22;54.33;99492.81;3608549;39;20056;-61
2021/06/14 05:54:53;;;;;;;9.15;7.25;;;;;;;16.31;54.39;99486.19;3608416;39;20084;-61
2021/06/14 05:57:21;;;;;;;13.65;6.78;;;;;;;16.41;54.04;99484.91;3607988;39;20415;-61
2021/06/14 05:59:48;;;;;;;7.22;5.70;;;;;;;16.53;54.12;99489.38;3608311;39;20020;-60
2021/06/14 06:02:16;;;;;;;6.68;5.32;;;;;;;16.69;53.35;99485.34;3608333;39;20043;-59
2021/06/14 06:04:48;;;;;;;9.73;5.97;;;;;;;16.74;53.11;99490.91;3608494;39;20175;-60
2021/06/14 06:07:16;;;;;;;6.32;5.03;;;;;;;16.77;52.98;99486.97;3608183;39;20060;-59
2021/06/14 06:09:44;;;;;;;7.53;5.35;;;;;;;16.88;52.75;99488.94;3598934;39;20064;-59
2021/06/14 06:12:12;;;;;;;11.38;6.38;;;;;;;16.95;53.29;99491.59;3609117;39;20051;-60
2021/06/14 06:14:40;;;;;;;9.77;6.85;;;;;;;17.13;53.41;99488.16;3609919;39;20168;-60
2021/06/14 06:17:08;;;;;;;9.95;6.38;;;;;;;17.34;52.76;99479.72;3609822;39;20087;-61
2021/06/14 06:19:36;;;;;;;7.60;4.47;;;;;;;17.51;51.79;99480.81;3600550;39;20055;-60
2021/06/14 06:22:05;;;;;;;9.70;5.97;;;;;;;17.56;51.96;99467.59;3609700;39;20075;-60
2021/06/14 06:24:38;;;;;;;7.95;5.20;;;;;;;17.66;51.55;99469.75;3609661;39;20035;-60
2021/06/14 06:27:06;;;;;;;12.88;5.47;;;;;;;17.76;51.17;99467.41;3600257;39;20051;-60
2021/06/14 06:29:34;;;;;;;6.15;5.55;;;;;;;17.91;51.14;99464.34;3610055;39;20043;-60
2021/06/14 06:32:02;;;;;;;7.82;5.30;;;;;;;18.00;50.92;99463.03;3610031;39;20043;-59
2021/06/14 06:34:30;;;;;;;8.68;4.40;;;;;;;18.10;49.99;99454.44;3609812;39;20412;-59
2021/06/14 06:36:57;;;;;;;10.07;4.85;;;;;;;18.26;49.17;99453.81;3599837;39;20332;-59
2021/06/14 06:39:27;;;;;;;5.63;4.35;;;;;;;18.36;49.37;99455.94;3610407;39;20059;-59
2021/06/14 06:41:56;;;;;;;6.75;4.22;;;;;;;18.48;48.68;99453.31;3610347;39;20124;-59
2021/06/14 06:44:23;;;;;;;8.95;4.20;;;;;;;18.51;48.30;99463.56;3611215;39;20404;-60
2021/06/14 06:46:51;;;;;;;4.68;3.72;;;;;;;18.60;47.67;99456.03;3611162;39;20046;-60
2021/06/14 06:49:19;;;;;;;8.25;3.75;;;;;;;18.63;47.63;99458.25;3611381;39;20055;-60
2021/06/14 06:51:47;;;;;;;7.30;4.60;;;;;;;18.68;47.83;99456.50;3611891;39;20061;-60
2021/06/14 06:54:15;;;;;;;8.73;4.30;;;;;;;18.84;47.54;99459.59;3601752;39;20043;-61
2021/06/14 06:56:49;;;;;;;8.98;4.13;;;;;;;18.94;48.01;99459.84;3610006;39;20117;-61
2021/06/14 06:59:17;;;;;;;6.25;3.50;;;;;;;19.08;47.18;99463.13;3610136;39;20049;-61
2021/06/14 07:01:45;;;;;;;8.15;3.80;;;;;;;19.12;46.87;99459.75;3610126;39;20116;-61
2021/06/14 07:04:14;;;;;;;8.27;4.43;;;;;;;19.32;46.35;99469.31;3609537;39;20035;-61
2021/06/14 07:06:42;;;;;;;6.00;3.40;;;;;;;19.37;46.17;99464.88;3610032;39;20048;-61
2021/06/14 07:09:11;;;;;;;8.05;3.67;;;;;;;19.46;45.10;99476.06;3609501;39;20047;-60
2021/06/14 07:11:39;;;;;;;7.13;3.58;;;;;;;19.41;45.84;99467.91;3600190;39;20084;-60
2021/06/14 07:14:09;;;;;;;6.03;3.90;;;;;;;19.53;45.94;99472.22;3609435;39;20051;-61
2021/06/14 07:16:39;;;;;;;8.68;6.90;;;;;;;19.66;45.52;99467.69;3609662;39;20340;-61
2021/06/14 07:19:07;;;;;;;4.22;3.25;;;;;;;19.73;45.26;99445.06;3609449;39;20050;-61
2021/06/14 07:21:35;;;;;;;5.88;3.72;;;;;;;19.83;45.19;99451.69;3609515;39;20475;-61
2021/06/14 07:24:03;;;;;;;8.73;3.40;;;;;;;19.94;45.06;99456.22;3609156;39;20054;-61
2021/06/14 07:26:31;;;;;;;5.50;3.20;;;;;;;19.94;44.86;99453.53;3609262;39;20055;-61
2021/06/14 07:28:59;;;;;;;5.15;3.03;;;;;;;19.95;44.64;99458.63;3609890;39;20415;-61
2021/06/14 07:31:28;;;;;;;5.55;3.47;;;;;;;20.01;44.43;99446.97;3600885;39;20493;-61
2021/06/14 07:33:58;;;;;;;7.63;3.22;;;;;;;20.18;43.37;99449.72;3611007;39;20051;-61
2021/06/14 07:36:26;;;;;;;6.57;3.60;;;;;;;20.26;43.75;99446.63;3610641;39;20036;-61
2021/06/14 07:38:54;;;;;;;5.05;3.10;;;;;;;20.29;43.80;99446.16;3610425;39;20047;-61
2021/06/14 07:41:22;;;;;;;4.32;3.28;;;;;;;20.39;43.55;99440.16;3611354;39;20410;-60
2021/06/14 07:43:50;;;;;;;6.63;3.53;;;;;;;20.46;43.33;99440.03;3609690;39;20078;-61
2021/06/14 07:46:18;;;;;;;4.88;3.25;;;;;;;20.59;42.08;99437.06;3599799;39;20342;-61
2021/06/14 07:48:47;;;;;;;5.80;2.92;;;;;;;20.83;40.83;99436.91;3609092;39;20047;-60
2021/06/14 07:51:15;;;;;;;5.68;3.22;;;;;;;20.92;41.00;99432.75;3600082;39;20394;-61
2021/06/14 07:53:49;;;;;;;4.93;3.08;;;;;;;21.13;40.20;99431.19;3609425;39;20055;-60
2021/06/14 07:56:16;;;;;;;;;;;;;;;21.27;39.81;99425.22;3610049;39;20055;-60
2021/06/14 07:58:44;;;;;;;7.72;4.80;;;;;;;21.25;39.39;99427.34;3599879;39;20244;-60
2021/06/14 08:01:12;;;;;;;5.63;2.83;;;;;;;21.27;39.46;99422.53;3609909;39;20043;-60
2021/06/14 08:03:40;;;;;;;5.22;3.15;;;;;;;21.40;39.34;99415.22;3611438;39;20055;-60
2021/06/14 08:06:09;;;;;;;4.47;2.92;;;;;;;21.53;38.42;99409.47;3611197;39;20043;-60
2021/06/14 08:08:37;;;;;;;7.35;3.05;;;;;;;21.64;38.29;99415.81;3609312;39;20188;-60
2021/06/14 08:11:07;;;;;;;7.65;3.30;;;;;;;21.76;37.86;99403.84;3600048;39;20058;-60
2021/06/14 08:13:35;;;;;;;6.57;3.30;;;;;;;21.85;37.94;99416.84;3609331;39;20051;-61
2021/06/14 08:16:15;;;;;;;12.05;6.65;;;;;;;21.99;37.57;99413.50;3609196;39;20043;-61
2021/06/14 08:18:46;;;;;;;7.70;6.35;;;;;;;22.00;37.68;99409.78;3608915;39;20411;-61
2021/06/14 08:21:27;;;;;;;7.13;4.38;;;;;;;22.18;36.51;99411.34;3609320;39;20047;-60
2021/06/14 08:26:43;;;;;;;6.63;3.25;;;;;;;22.34;36.20;99400.72;3608984;39;20043;-61
2021/06/14 08:29:11;;;;;;;7.65;3.65;;;;;;;22.41;36.05;99396.75;3608751;39;20054;-60
2021/06/14 08:31:41;;;;;;;8.63;3.38;;;;;;;22.58;35.47;99401.22;3609078;39;20052;-61
2021/06/14 08:34:10;;;;;;;4.93;2.90;;;;;;;22.69;35.38;99402.91;3609137;39;20047;-60
2021/06/14 08:36:40;;;;;;;8.75;4.55;;;;;;;22.74;34.87;99397.56;3608821;39;20087;-61
2021/06/14 08:39:11;;;;;;;5.65;3.10;;;;;;;22.70;34.66;99397.25;3608853;39;20048;-61
2021/06/14 08:41:40;;;;;;;4.30;3.10;;;;;;;22.73;34.59;99402.13;3609042;39;20320;-61
2021/06/14 08:44:10;;;;;;;4.22;2.72;;;;;;;22.87;34.58;99404.41;3609087;39;20069;-61
2021/06/14 08:46:39;;;;;;;6.55;2.78;;;;;;;22.99;34.32;99403.16;3666425;22;20043;-63
2021/06/14 08:49:08;;;;;;;5.03;2.97;;;;;;;23.06;33.77;99399.41;3599561;39;20315;-64
2021/06/14 08:51:36;;;;;;;6.30;3.00;;;;;;;23.13;32.71;99394.63;3609362;39;20047;-64
2021/06/14 08:54:07;;;;;;;5.25;3.20;;;;;;;23.07;32.63;99396.47;3609266;39;20345;-64
2021/06/14 08:56:35;;;;;;;4.93;2.28;;;;;;;23.12;32.83;99388.41;3609134;39;20095;-65
2021/06/14 08:59:04;;;;;;;4.13;2.22;;;;;;;23.21;32.76;99392.25;3608949;39;20087;-64
2021/06/14 09:01:32;;;;;;;6.65;3.67;;;;;;;23.30;32.63;99395.25;3609156;39;20054;-65
2021/06/14 09:04:00;;;;;;;4.50;3.47;;;;;;;23.42;32.39;99392.34;3609241;39;20055;-64
2021/06/14 09:06:28;;;;;;;5.38;3.67;;;;;;;23.48;31.33;99392.13;3609113;39;20385;-66
2021/06/14 09:08:57;;;;;;;8.48;3.90;;;;;;;23.38;30.79;99391.25;3609306;39;20048;-65
2021/06/14 09:11:26;;;;;;;6.82;3.47;;;;;;;23.39;31.51;99388.31;3609149;39;20049;-65
2021/06/14 09:13:54;;;;;;;8.63;4.78;;;;;;;23.49;31.88;99391.03;3609057;39;20039;-64
2021/06/14 09:16:22;;;;;;;5.05;3.67;;;;;;;23.54;31.80;99392.94;3609053;39;20311;-65
2021/06/14 09:18:50;;;;;;;8.52;3.08;;;;;;;23.58;31.54;99385.13;3600339;39;20047;-64
2021/06/14 09:21:28;;;;;;;6.18;3.83;;;;;;;23.59;31.70;99384.88;3602655;39;20043;-64
2021/06/14 09:23:58;;;;;;;7.28;2.90;;;;;;;23.63;31.06;99377.06;3603247;39;20043;-65
2021/06/14 09:26:30;;;;;;;5.63;3.03;;;;;;;23.68;31.40;99385.22;3613068;39;20076;-64
2021/06/14 09:29:00;;;;;;;3.35;2.20;;;;;;;23.77;31.16;99378.22;3611296;39;20069;-66
2021/06/14 09:31:37;;;;;;;5.35;2.90;;;;;;;23.85;30.73;99377.72;3610392;39;20384;-64
2021/06/14 09:34:05;;;;;;;6.68;3.38;;;;;;;23.82;30.80;99375.53;3609563;39;20083;-64
2021/06/14 09:36:33;;;;;;;11.30;9.70;;;;;;;23.70;31.31;99372.25;3609311;39;20047;-63
2021/06/14 09:39:10;;;;;;;5.25;3.58;;;;;;;23.79;30.98;99376.06;3608860;39;20109;-64
2021/06/14 09:41:41;;;;;;;11.02;5.75;;;;;;;23.96;29.91;99373.97;3609238;39;20343;-65
2021/06/14 09:44:08;;;;;;;3.95;2.83;;;;;;;23.90;29.91;99371.53;3608930;39;20055;-64
2021/06/14 09:46:37;;;;;;;11.57;2.70;;;;;;;23.92;30.12;99370.19;3609271;39;20070;-65
2021/06/14 09:49:06;;;;;;;5.72;2.95;;;;;;;23.89;30.30;99365.31;3610101;39;20176;-64
2021/06/14 09:51:35;;;;;;;4.85;2.60;;;;;;;23.91;30.32;99360.44;3610181;39;20132;-64
2021/06/14 09:54:03;;;;;;;7.78;4.10;;;;;;;24.07;30.14;99355.88;3610264;39;20051;-64
2021/06/14 09:56:35;;;;;;;4.63;2.65;;;;;;;24.18;30.06;99349.44;3610236;39;20096;-63
2021/06/14 09:59:07;;;;;;;2.83;2.33;;;;;;;24.23;30.25;99348.63;3610836;39;20403;-65
2021/06/14 10:01:38;;;;;;;6.55;3.10;;;;;;;24.36;30.42;99352.69;3610686;39;20043;-64
2021/06/14 10:04:09;;;;;;;4.95;2.70;;;;;;;24.33;30.47;99339.69;3609928;39;20069;-65
2021/06/14 10:06:38;;;;;;;6.15;2.95;;;;;;;24.21;30.39;99351.59;3610062;39;20083;-66
2021/06/14 10:09:10;;;;;;;3.60;3.00;;;;;;;24.28;30.59;99345.09;3609766;39;20078;-65
2021/06/14 10:11:39;;;;;;;5.97;2.97;;;;;;;24.32;30.54;99341.59;3610577;39;20087;-65
2021/06/14 10:14:12;;;;;;;2.78;2.10;;;;;;;24.58;30.08;99344.34;3610076;39;20438;-65
2021/06/14 10:16:41;;;;;;;5.28;3.30;;;;;;;24.69;29.48;99338.63;3610046;39;20076;-66
2021/06/14 10:19:11;;;;;;;5.10;2.78;;;;;;;24.77;28.95;99328.34;3609776;39;20059;-64
2021/06/14 10:21:41;;;;;;;4.35;2.70;;;;;;;24.75;28.93;99336.75;3610013;39;20051;-64
2021/06/14 10:24:11;;;;;;;2.92;2.10;;;;;;;24.89;28.43;99329.69;3609927;39;20105;-64
2021/06/14 10:26:41;;;;;;;3.55;2.50;;;;;;;24.73;28.23;99327.28;3610259;39;20144;-64
2021/06/14 10:29:14;;;;;;;3.85;3.20;;;;;;;24.59;28.22;99329.75;3600431;39;20382;-65
2021/06/14 10:31:45;;;;;;;5.88;2.60;;;;;;;24.50;29.03;99324.06;3610522;39;20058;-64
2021/06/14 10:34:15;;;;;;;4.32;2.97;;;;;;;24.75;29.11;99325.94;3610271;39;20124;-64
2021/06/14 10:36:49;;;;;;;11.52;9.88;;;;;;;24.88;28.98;99324.56;3609885;39;20038;-65
2021/06/14 10:39:20;;;;;;;4.80;3.75;;;;;;;24.89;28.81;99312.66;3610964;39;20051;-65
2021/06/14 10:41:49;;;;;;;8.73;6.57;;;;;;;24.89;28.72;99305.34;3611478;39;20128;-64
2021/06/14 10:44:18;;;;;;;8.00;2.58;;;;;;;24.91;28.84;99307.78;3613766;39;20039;-64
2021/06/14 10:46:48;;;;;;;3.53;2.90;;;;;;;25.02;28.64;99301.25;3612943;39;20188;-64
2021/06/14 10:49:17;;;;;;;3.40;3.10;;;;;;;25.10;28.67;99306.13;3610634;39;20043;-64
2021/06/14 10:51:45;;;;;;;5.55;3.28;;;;;;;25.23;27.96;99304.75;3611417;39;20121;-64
2021/06/14 10:54:16;;;;;;;5.25;2.55;;;;;;;25.22;28.05;99288.78;3611909;39;20056;-64
2021/06/14 10:56:45;;;;;;;2.90;2.20;;;;;;;25.22;28.22;99291.47;3611105;39;20047;-64
2021/06/14 10:59:14;;;;;;;5.70;2.83;;;;;;;25.42;28.08;99283.28;3611139;39;20123;-63
2021/06/14 11:01:46;;;;;;;4.28;2.55;;;;;;;25.57;27.42;99283.19;3601738;39;20060;-65
2021/06/14 11:04:24;;;;;;;5.85;5.00;;;;;;;25.60;27.88;99282.66;3609785;39;20084;-65
2021/06/14 11:06:53;;;;;;;4.43;2.50;;;;;;;25.50;27.80;99279.19;3600226;39;20040;-65
2021/06/14 11:09:21;;;;;;;12.10;10.85;;;;;;;25.44;28.24;99278.41;3600215;39;20088;-64
2021/06/14 11:11:52;;;;;;;4.10;2.53;;;;;;;25.40;28.44;99288.16;3609548;39;20333;-64
2021/06/14 11:14:35;;;;;;;7.00;3.58;;;;;;;25.55;28.23;99281.84;3600718;39;20048;-64
2021/06/14 11:17:17;;;;;;;5.07;3.25;;;;;;;25.66;28.06;99278.81;3609434;39;20304;-64
2021/06/14 11:19:47;;;;;;;4.05;2.92;;;;;;;25.74;28.05;99280.13;3609870;39;20059;-67
2021/06/14 11:22:15;;;;;;;7.95;4.30;;;;;;;25.89;27.52;99271.94;3609353;39;20399;-64
2021/06/14 11:24:44;;;;;;;8.40;4.60;;;;;;;26.03;27.48;99260.44;3609427;39;20052;-65
2021/06/14 11:27:12;;;;;;;4.75;4.22;;;;;;;26.11;27.09;99251.72;3609363;39;20416;-63
2021/06/14 11:29:45;;;;;;;3.33;2.67;;;;;;;26.19;26.53;99251.91;3609486;39;20047;-64
2021/06/14 11:32:19;;;;;;;5.57;2.35;;;;;;;26.23;26.29;99254.84;3609644;39;20083;-63
2021/06/14 11:34:50;;;;;;;8.55;3.70;;;;;;;26.14;26.63;99249.25;3609340;39;20055;-64
2021/06/14 11:37:18;;;;;;;3.95;2.55;;;;;;;26.27;26.50;99249.69;3609138;39;20048;-64
2021/06/14 11:39:46;;;;;;;5.68;2.28;;;;;;;26.25;25.80;99233.72;3610046;39;20051;-64
2021/06/14 11:42:17;;;;;;;3.13;2.08;;;;;;;25.89;26.44;99231.31;3609803;39;20047;-64
2021/06/14 11:44:53;;;;;;;2.75;2.10;;;;;;;25.91;27.03;99231.81;3609510;39;20043;-64
2021/06/14 11:47:26;;;;;;;2.47;2.28;;;;;;;25.91;26.85;99223.69;3609815;39;20044;-64
2021/06/14 11:49:58;;;;;;;6.38;5.25;;;;;;;26.07;27.39;99223.56;3609711;39;20047;-64